createdAt,value
2022-11-15T00:00:51.970Z,2.054
2022-11-15T00:01:52.056Z,1.986
2022-11-15T00:02:52.037Z,2
2022-11-15T00:03:52.066Z,2
2022-11-15T00:04:52.101Z,2
2022-11-15T00:05:52.128Z,2
2022-11-15T00:06:52.243Z,1.973
2022-11-15T00:07:55.564Z,1.973
2022-11-15T00:08:52.234Z,1.91
2022-11-15T00:09:52.268Z,1.882
2022-11-15T00:10:52.293Z,1.827
2022-11-15T00:11:52.335Z,1.799
2022-11-15T00:12:52.356Z,1.771
2022-11-15T00:13:52.385Z,1.64
2022-11-15T00:14:52.413Z,1.584
2022-11-15T00:15:52.448Z,1.57
2022-11-15T00:16:52.477Z,1.612
2022-11-15T00:17:52.512Z,1.64
2022-11-15T00:18:52.543Z,1.63
2022-11-15T00:19:52.577Z,1.617
2022-11-15T00:20:52.602Z,1.589
2022-11-15T00:21:52.635Z,1.575
2022-11-15T00:22:52.664Z,1.561
2022-11-15T00:23:52.692Z,1.491
2022-11-15T00:24:52.716Z,1.491
2022-11-15T00:25:52.744Z,1.477
2022-11-15T00:26:52.774Z,1.425
2022-11-15T00:27:52.806Z,1.348
2022-11-15T00:28:52.841Z,1.316
2022-11-15T00:29:52.872Z,1.288
2022-11-15T00:30:52.918Z,1.302
2022-11-15T00:31:52.937Z,1.316
2022-11-15T00:32:52.968Z,1.33
2022-11-15T00:33:53.001Z,1.33
2022-11-15T00:34:53.031Z,1.288
2022-11-15T00:35:53.064Z,1.265
2022-11-15T00:36:53.102Z,1.251
2022-11-15T00:37:53.132Z,1.226
2022-11-15T00:38:53.175Z,1.282
2022-11-15T00:39:53.204Z,1.307
2022-11-15T00:40:53.233Z,1.378
2022-11-15T00:41:53.268Z,1.448
2022-11-15T00:42:53.304Z,1.462
2022-11-15T00:43:53.339Z,1.448
2022-11-15T00:44:53.368Z,1.426
2022-11-15T00:45:53.410Z,1.457
2022-11-15T00:46:53.433Z,1.471
2022-11-15T00:47:53.468Z,1.462
2022-11-15T00:48:53.497Z,1.448
2022-11-15T00:49:53.528Z,1.448
2022-11-15T00:50:53.559Z,1.479
2022-11-15T00:51:53.583Z,1.448
2022-11-15T00:52:53.620Z,1.434
2022-11-15T00:53:53.654Z,1.406
2022-11-15T00:54:53.678Z,1.42
2022-11-15T00:55:53.709Z,1.434
2022-11-15T00:56:53.743Z,1.476
2022-11-15T00:57:53.771Z,1.49
2022-11-15T00:58:53.802Z,1.504
2022-11-15T00:59:53.832Z,1.531
2022-11-15T01:00:53.984Z,1.531
2022-11-15T01:01:53.910Z,1.601
2022-11-15T01:02:53.933Z,1.679
2022-11-15T01:03:58.643Z,1.693
2022-11-15T01:04:54.005Z,1.679
2022-11-15T01:05:54.053Z,1.693
2022-11-15T01:06:54.139Z,1.721
2022-11-15T01:07:54.103Z,1.721
2022-11-15T01:08:54.129Z,1.721
2022-11-15T01:09:54.167Z,1.734
2022-11-15T01:10:54.191Z,1.721
2022-11-15T01:11:54.232Z,1.707
2022-11-15T01:12:54.249Z,1.721
2022-11-15T01:13:54.282Z,1.721
2022-11-15T01:14:54.318Z,1.721
2022-11-15T01:15:54.354Z,1.721
2022-11-15T01:16:54.385Z,1.715
2022-11-15T01:17:54.416Z,1.729
2022-11-15T01:18:54.452Z,1.756
2022-11-15T01:19:54.492Z,1.784
2022-11-15T01:20:54.504Z,1.798
2022-11-15T01:21:54.536Z,1.77
2022-11-15T01:22:54.570Z,1.743
2022-11-15T01:23:54.596Z,1.674
2022-11-15T01:24:54.621Z,1.596
2022-11-15T01:25:54.653Z,1.624
2022-11-15T01:26:54.683Z,1.568
2022-11-15T01:27:54.710Z,1.555
2022-11-15T01:28:54.747Z,1.527
2022-11-15T01:29:54.780Z,1.513
2022-11-15T01:30:54.807Z,1.499
2022-11-15T01:31:54.838Z,1.471
2022-11-15T01:32:54.873Z,1.471
2022-11-15T01:33:54.897Z,1.488
2022-11-15T01:34:54.936Z,1.46
2022-11-15T01:35:54.963Z,1.485
2022-11-15T01:36:54.987Z,1.582
2022-11-15T01:37:55.021Z,1.638
2022-11-15T01:38:55.051Z,1.679
2022-11-15T01:39:55.089Z,1.679
2022-11-15T01:40:55.124Z,1.707
2022-11-15T01:41:55.143Z,1.734
2022-11-15T01:42:55.176Z,1.693
2022-11-15T01:43:55.216Z,1.679
2022-11-15T01:44:55.240Z,1.665
2022-11-15T01:45:55.271Z,1.638
2022-11-15T01:46:55.309Z,1.638
2022-11-15T01:47:55.351Z,1.638
2022-11-15T01:48:55.378Z,1.638
2022-11-15T01:49:55.406Z,1.624
2022-11-15T01:50:55.440Z,1.596
2022-11-15T01:51:55.474Z,1.596
2022-11-15T01:52:55.506Z,1.652
2022-11-15T01:53:55.540Z,1.707
2022-11-15T01:54:55.573Z,1.77
2022-11-15T01:55:55.609Z,1.798
2022-11-15T01:56:55.632Z,1.811
2022-11-15T01:57:55.664Z,1.857
2022-11-15T01:58:55.695Z,1.906
2022-11-15T01:59:55.725Z,1.943
2022-11-15T02:00:55.835Z,1.957
2022-11-15T02:01:55.787Z,1.97
2022-11-15T02:02:55.818Z,1.97
2022-11-15T02:03:55.850Z,1.984
2022-11-15T02:04:55.882Z,1.984
2022-11-15T02:05:55.909Z,1.984
2022-11-15T02:06:56.075Z,1.984
2022-11-15T02:07:55.974Z,1.998
2022-11-15T02:08:56.003Z,2.033
2022-11-15T02:09:56.035Z,2.057
2022-11-15T02:10:56.063Z,2.07
2022-11-15T02:11:56.107Z,2.07
2022-11-15T02:12:56.132Z,2.084
2022-11-15T02:13:56.165Z,2.084
2022-11-15T02:14:56.200Z,2.07
2022-11-15T02:16:00.311Z,2.07
2022-11-15T02:16:56.259Z,2.07
2022-11-15T02:17:56.297Z,2.057
2022-11-15T02:18:56.318Z,2.057
2022-11-15T02:19:56.349Z,2.025
2022-11-15T02:20:56.378Z,2.048
2022-11-15T02:21:56.411Z,2.048
2022-11-15T02:22:56.440Z,2.025
2022-11-15T02:23:56.475Z,2.025
2022-11-15T02:24:56.502Z,2.048
2022-11-15T02:25:56.532Z,2.011
2022-11-15T02:26:56.560Z,2.011
2022-11-15T02:27:56.599Z,2.011
2022-11-15T02:28:56.630Z,2.011
2022-11-15T02:29:56.666Z,2.011
2022-11-15T02:30:56.694Z,2.025
2022-11-15T02:31:56.723Z,2.025
2022-11-15T02:32:56.758Z,2.025
2022-11-15T02:33:56.790Z,2.011
2022-11-15T02:34:56.829Z,2.034
2022-11-15T02:35:56.862Z,2.011
2022-11-15T02:36:56.891Z,1.997
2022-11-15T02:37:56.918Z,1.997
2022-11-15T02:38:56.952Z,1.997
2022-11-15T02:39:56.990Z,2.038
2022-11-15T02:40:57.025Z,2.024
2022-11-15T02:41:57.076Z,2.006
2022-11-15T02:42:57.082Z,2.006
2022-11-15T02:43:57.115Z,2.006
2022-11-15T02:44:57.150Z,2.029
2022-11-15T02:45:57.179Z,2.006
2022-11-15T02:46:57.208Z,1.964
2022-11-15T02:47:57.235Z,1.91
2022-11-15T02:48:57.264Z,1.873
2022-11-15T02:49:57.300Z,1.794
2022-11-15T02:50:57.325Z,1.752
2022-11-15T02:51:57.344Z,1.725
2022-11-15T02:52:57.409Z,1.657
2022-11-15T02:53:57.412Z,1.64
2022-11-15T02:54:57.438Z,1.64
2022-11-15T02:55:57.474Z,1.589
2022-11-15T02:56:57.499Z,1.598
2022-11-15T02:57:57.530Z,1.561
2022-11-15T02:58:57.560Z,1.547
2022-11-15T02:59:57.600Z,1.547
2022-11-15T03:00:57.700Z,1.533
2022-11-15T03:01:57.661Z,1.519
2022-11-15T03:02:57.681Z,1.505
2022-11-15T03:03:57.701Z,1.44
2022-11-15T03:04:57.727Z,1.397
2022-11-15T03:05:57.762Z,1.319
2022-11-15T03:06:57.841Z,1.316
2022-11-15T03:08:01.033Z,1.345
2022-11-15T03:08:57.852Z,1.321
2022-11-15T03:09:57.884Z,1.373
2022-11-15T03:10:57.921Z,1.378
2022-11-15T03:11:57.950Z,1.406
2022-11-15T03:12:57.980Z,1.406
2022-11-15T03:13:58.007Z,1.406
2022-11-15T03:14:58.041Z,1.406
2022-11-15T03:15:58.080Z,1.406
2022-11-15T03:16:58.114Z,1.392
2022-11-15T03:17:58.148Z,1.378
2022-11-15T03:18:58.183Z,1.383
2022-11-15T03:19:58.225Z,1.333
2022-11-15T03:20:58.262Z,1.333
2022-11-15T03:21:58.285Z,1.347
2022-11-15T03:22:58.323Z,1.361
2022-11-15T03:23:58.349Z,1.375
2022-11-15T03:24:58.380Z,1.368
2022-11-15T03:25:58.414Z,1.382
2022-11-15T03:26:58.440Z,1.395
2022-11-15T03:27:58.463Z,1.372
2022-11-15T03:28:58.489Z,1.372
2022-11-15T03:29:58.515Z,1.372
2022-11-15T03:30:58.546Z,1.372
2022-11-15T03:31:58.582Z,1.358
2022-11-15T03:32:58.612Z,1.358
2022-11-15T03:33:58.645Z,1.334
2022-11-15T03:34:58.677Z,1.324
2022-11-15T03:35:58.753Z,1.324
2022-11-15T03:36:58.748Z,1.284
2022-11-15T03:37:58.854Z,1.27
2022-11-15T03:38:58.868Z,1.31
2022-11-15T03:39:58.867Z,1.31
2022-11-15T03:40:58.887Z,1.247
2022-11-15T03:41:58.926Z,1.234
2022-11-15T03:42:58.952Z,1.234
2022-11-15T03:43:58.974Z,1.195
2022-11-15T03:44:59.001Z,1.167
2022-11-15T03:45:59.033Z,1.167
2022-11-15T03:46:59.075Z,1.138
2022-11-15T03:47:59.108Z,1.11
2022-11-15T03:48:59.136Z,1.068
2022-11-15T03:49:59.167Z,1.054
2022-11-15T03:50:59.200Z,1.054
2022-11-15T03:51:59.241Z,1.082
2022-11-15T03:52:59.270Z,1.059
2022-11-15T03:53:59.292Z,1.101
2022-11-15T03:54:59.324Z,1.101
2022-11-15T03:55:59.358Z,1.087
2022-11-15T03:56:59.391Z,1.073
2022-11-15T03:57:59.426Z,1.045
2022-11-15T03:58:59.455Z,0.9104
2022-11-15T03:59:59.488Z,0.8821
2022-11-15T04:00:59.570Z,0.868
2022-11-15T04:01:59.541Z,0.8538
2022-11-15T04:02:59.569Z,0.8538
2022-11-15T04:03:59.596Z,0.8113
2022-11-15T04:04:59.631Z,0.7828
2022-11-15T04:06:02.686Z,0.7686
2022-11-15T04:06:59.739Z,0.7686
2022-11-15T04:07:59.743Z,0.7828
2022-11-15T04:08:59.768Z,0.7971
2022-11-15T04:09:59.803Z,0.8113
2022-11-15T04:11:02.198Z,0.8207
2022-11-15T04:11:59.869Z,0.7994
2022-11-15T04:12:59.906Z,0.7568
2022-11-15T04:13:59.944Z,0.7141
2022-11-15T04:14:59.972Z,0.6999
2022-11-15T04:16:00.009Z,0.6713
2022-11-15T04:17:00.050Z,0.6713
2022-11-15T04:18:00.094Z,0.6856
2022-11-15T04:19:00.123Z,0.7383
2022-11-15T04:20:00.175Z,0.7383
2022-11-15T04:21:00.180Z,0.6626
2022-11-15T04:22:00.209Z,0.7054
2022-11-15T04:23:00.247Z,0.7338
2022-11-15T04:24:00.279Z,0.6944
2022-11-15T04:25:00.314Z,0.7369
2022-11-15T04:26:00.355Z,0.7369
2022-11-15T04:27:00.378Z,0.745
2022-11-15T04:28:00.403Z,0.6944
2022-11-15T04:29:00.448Z,0.7591
2022-11-15T04:30:00.458Z,0.8016
2022-11-15T04:31:00.492Z,0.751
2022-11-15T04:32:00.517Z,0.751
2022-11-15T04:33:00.548Z,0.7934
2022-11-15T04:34:00.586Z,0.8637
2022-11-15T04:35:00.610Z,0.9756
2022-11-15T04:36:00.646Z,1.017
2022-11-15T04:37:00.678Z,1.108
2022-11-15T04:38:00.718Z,1.15
2022-11-15T04:39:00.739Z,1.124
2022-11-15T04:40:00.779Z,1.115
2022-11-15T04:41:00.820Z,1.102
2022-11-15T04:42:00.849Z,1.088
2022-11-15T04:43:03.797Z,1.129
2022-11-15T04:44:00.914Z,1.171
2022-11-15T04:45:00.933Z,1.171
2022-11-15T04:46:00.970Z,1.198
2022-11-15T04:47:01.020Z,1.225
2022-11-15T04:48:01.026Z,1.239
2022-11-15T04:49:01.056Z,1.212
2022-11-15T04:50:01.097Z,1.22
2022-11-15T04:51:01.130Z,1.198
2022-11-15T04:52:01.179Z,1.189
2022-11-15T04:53:01.196Z,1.14
2022-11-15T04:54:01.219Z,1.112
2022-11-15T04:55:06.689Z,1.085
2022-11-15T04:56:01.278Z,1.057
2022-11-15T04:57:01.342Z,1.057
2022-11-15T04:58:01.340Z,1.071
2022-11-15T04:59:01.397Z,1.043
2022-11-15T05:00:01.408Z,1.029
2022-11-15T05:01:01.485Z,1.001
2022-11-15T05:02:01.478Z,1.001
2022-11-15T05:03:01.503Z,0.9876
2022-11-15T05:04:01.533Z,0.9693
2022-11-15T05:05:01.565Z,0.9693
2022-11-15T05:06:01.599Z,0.9693
2022-11-15T05:07:01.648Z,0.9693
2022-11-15T05:08:01.652Z,0.9693
2022-11-15T05:09:01.688Z,0.9693
2022-11-15T05:10:01.727Z,0.9415
2022-11-15T05:11:01.759Z,0.9276
2022-11-15T05:12:01.794Z,0.8781
2022-11-15T05:13:01.827Z,0.8748
2022-11-15T05:14:01.865Z,0.8748
2022-11-15T05:15:01.908Z,0.8378
2022-11-15T05:16:01.957Z,0.8238
2022-11-15T05:17:01.959Z,0.8099
2022-11-15T05:18:01.989Z,0.8099
2022-11-15T05:19:02.018Z,0.7959
2022-11-15T05:20:02.052Z,0.7422
2022-11-15T05:21:02.080Z,0.7331
2022-11-15T05:22:02.110Z,0.7018
2022-11-15T05:23:02.145Z,0.7051
2022-11-15T05:24:02.180Z,0.5963
2022-11-15T05:25:02.218Z,0.5683
2022-11-15T05:26:07.858Z,0.5171
2022-11-15T05:27:02.289Z,0.5312
2022-11-15T05:28:02.323Z,0.5312
2022-11-15T05:29:02.352Z,0.5733
2022-11-15T05:30:02.385Z,0.5873
2022-11-15T05:31:02.413Z,0.6293
2022-11-15T05:32:02.445Z,0.6293
2022-11-15T05:33:02.478Z,0.6433
2022-11-15T05:34:02.507Z,0.5831
2022-11-15T05:35:02.545Z,0.5551
2022-11-15T05:36:02.574Z,0.5551
2022-11-15T05:37:02.604Z,0.513
2022-11-15T05:38:02.641Z,0.4849
2022-11-15T05:39:02.674Z,0.4708
2022-11-15T05:40:02.709Z,0.4708
2022-11-15T05:41:02.744Z,0.4708
2022-11-15T05:42:02.782Z,0.4567
2022-11-15T05:43:02.810Z,0.4849
2022-11-15T05:44:02.832Z,0.5072
2022-11-15T05:45:02.862Z,0.5031
2022-11-15T05:46:02.887Z,0.5354
2022-11-15T05:47:02.919Z,0.5667
2022-11-15T05:48:02.947Z,0.5873
2022-11-15T05:49:03.023Z,0.598
2022-11-15T05:50:03.017Z,0.5873
2022-11-15T05:51:03.037Z,0.6153
2022-11-15T05:52:03.073Z,0.6153
2022-11-15T05:53:05.316Z,0.6711
2022-11-15T05:54:03.136Z,0.6711
2022-11-15T05:55:03.192Z,0.6572
2022-11-15T05:56:03.220Z,0.6663
2022-11-15T05:57:03.248Z,0.6244
2022-11-15T05:58:03.276Z,0.5873
2022-11-15T05:59:03.307Z,0.5402
2022-11-15T06:00:03.341Z,0.5402
2022-11-15T06:01:03.378Z,0.5788
2022-11-15T06:02:03.454Z,0.5788
2022-11-15T06:03:03.419Z,0.5647
2022-11-15T06:04:03.451Z,0.56
2022-11-15T06:05:03.493Z,0.5881
2022-11-15T06:06:03.515Z,0.5386
2022-11-15T06:07:03.608Z,0.5574
2022-11-15T06:08:03.578Z,0.4817
2022-11-15T06:09:03.617Z,0.4906
2022-11-15T06:10:03.641Z,0.4624
2022-11-15T06:11:03.663Z,0.4656
2022-11-15T06:12:03.694Z,0.4059
2022-11-15T06:13:03.721Z,0.409
2022-11-15T06:14:03.757Z,0.409
2022-11-15T06:15:03.788Z,0.3869
2022-11-15T06:16:03.830Z,0.3728
2022-11-15T06:17:07.279Z,0.3664
2022-11-15T06:18:03.884Z,0.3444
2022-11-15T06:19:03.920Z,0.2765
2022-11-15T06:20:03.945Z,0.2481
2022-11-15T06:21:03.963Z,0.2264
2022-11-15T06:22:03.991Z,0.1978
2022-11-15T06:23:04.028Z,0.1749
2022-11-15T06:24:04.058Z,0.2359
2022-11-15T06:25:05.567Z,0.2109
2022-11-15T06:26:04.120Z,0.2109
2022-11-15T06:27:04.154Z,0.2109
2022-11-15T06:28:04.180Z,0.1966
2022-11-15T06:29:04.213Z,0.2109
2022-11-15T06:30:04.239Z,0.2109
2022-11-15T06:31:04.284Z,0.2393
2022-11-15T06:32:04.312Z,0.2251
2022-11-15T06:33:04.337Z,0.1823
2022-11-15T06:34:04.369Z,0.2177
2022-11-15T06:35:04.396Z,0.2589
2022-11-15T06:36:04.442Z,0.216
2022-11-15T06:37:04.457Z,0.173
2022-11-15T06:38:04.490Z,0.1116
2022-11-15T06:39:04.520Z,-0.00437
2022-11-15T06:40:04.539Z,0.01857
2022-11-15T06:41:04.571Z,0.0828
2022-11-15T06:42:04.593Z,0.05986
2022-11-15T06:43:04.619Z,0.03892
2022-11-15T06:44:04.649Z,0.0677
2022-11-15T06:45:04.680Z,0.05331
2022-11-15T06:46:04.703Z,0.03892
2022-11-15T06:47:04.734Z,0.07626
2022-11-15T06:48:04.768Z,0.05331
2022-11-15T06:49:09.412Z,0.04743
2022-11-15T06:50:04.828Z,-0.01884
2022-11-15T06:51:04.859Z,-0.01884
2022-11-15T06:52:04.887Z,-0.01884
2022-11-15T06:53:04.917Z,-0.04778
2022-11-15T06:54:04.950Z,-0.06227
2022-11-15T06:55:04.980Z,-0.07071
2022-11-15T06:56:05.022Z,-0.07071
2022-11-15T06:57:05.045Z,-0.02731
2022-11-15T06:58:05.079Z,0.01597
2022-11-15T06:59:05.112Z,0.08207
2022-11-15T07:00:05.154Z,0.08207
2022-11-15T07:01:05.236Z,0.09644
2022-11-15T07:02:05.210Z,0.1108
2022-11-15T07:03:05.238Z,0.1538
2022-11-15T07:04:05.262Z,0.1862
2022-11-15T07:05:05.292Z,0.2502
2022-11-15T07:06:07.546Z,0.2446
2022-11-15T07:07:05.424Z,0.2446
2022-11-15T07:08:05.389Z,0.2589
2022-11-15T07:09:05.415Z,0.2589
2022-11-15T07:10:05.448Z,0.2686
2022-11-15T07:11:05.479Z,0.2686
2022-11-15T07:12:07.870Z,0.3773
2022-11-15T07:13:05.536Z,0.4058
2022-11-15T07:14:05.571Z,0.4343
2022-11-15T07:15:05.610Z,0.491
2022-11-15T07:16:05.632Z,0.5564
2022-11-15T07:17:05.657Z,0.5564
2022-11-15T07:18:05.686Z,0.5846
2022-11-15T07:19:05.710Z,0.5945
2022-11-15T07:20:05.749Z,0.6671
2022-11-15T07:21:05.782Z,0.7092
2022-11-15T07:22:05.817Z,0.7652
2022-11-15T07:23:05.849Z,0.8969
2022-11-15T07:24:05.876Z,0.9663
2022-11-15T07:25:05.907Z,1.008
2022-11-15T07:26:05.950Z,1.14
2022-11-15T07:27:05.978Z,1.223
2022-11-15T07:28:06.011Z,1.236
2022-11-15T07:29:06.040Z,1.258
2022-11-15T07:30:06.068Z,1.277
2022-11-15T07:31:06.103Z,1.335
2022-11-15T07:32:06.133Z,1.322
2022-11-15T07:33:06.160Z,1.313
2022-11-15T07:34:06.190Z,1.321
2022-11-15T07:35:06.220Z,1.335
2022-11-15T07:36:06.245Z,1.321
2022-11-15T07:37:06.276Z,1.344
2022-11-15T07:38:06.313Z,1.398
2022-11-15T07:39:06.341Z,1.438
2022-11-15T07:40:06.370Z,1.488
2022-11-15T07:41:06.399Z,1.501
2022-11-15T07:42:06.435Z,1.538
2022-11-15T07:43:06.464Z,1.552
2022-11-15T07:44:06.488Z,1.571
2022-11-15T07:45:06.517Z,1.62
2022-11-15T07:46:06.554Z,1.62
2022-11-15T07:47:06.576Z,1.671
2022-11-15T07:48:06.608Z,1.706
2022-11-15T07:49:06.635Z,1.737
2022-11-15T07:50:06.670Z,1.779
2022-11-15T07:51:11.259Z,1.779
2022-11-15T07:52:06.735Z,1.788
2022-11-15T07:53:06.773Z,1.788
2022-11-15T07:54:06.792Z,1.797
2022-11-15T07:55:06.827Z,1.797
2022-11-15T07:56:06.854Z,1.913
2022-11-15T07:57:07.828Z,1.913
2022-11-15T07:58:06.909Z,1.913
2022-11-15T07:59:06.939Z,1.899
2022-11-15T08:00:06.977Z,1.936
2022-11-15T08:01:07.183Z,1.99
2022-11-15T08:02:07.206Z,2.025
2022-11-15T08:03:07.060Z,2.035
2022-11-15T08:04:07.096Z,2.016
2022-11-15T08:05:07.126Z,1.985
2022-11-15T08:06:07.148Z,2.021
2022-11-15T08:07:07.250Z,2.092
2022-11-15T08:08:07.205Z,2.111
2022-11-15T08:09:07.237Z,2.12
2022-11-15T08:10:07.273Z,2.143
2022-11-15T08:11:07.310Z,2.147
2022-11-15T08:12:07.338Z,2.259
2022-11-15T08:13:07.435Z,2.232
2022-11-15T08:14:07.399Z,2.218
2022-11-15T08:15:07.436Z,2.226
2022-11-15T08:16:07.476Z,2.212
2022-11-15T08:17:07.509Z,2.271
2022-11-15T08:18:07.542Z,2.261
2022-11-15T08:19:07.573Z,2.269
2022-11-15T08:20:07.603Z,2.274
2022-11-15T08:21:07.638Z,2.26
2022-11-15T08:22:07.671Z,2.3
2022-11-15T08:23:07.704Z,2.286
2022-11-15T08:24:07.729Z,2.322
2022-11-15T08:25:07.767Z,2.327
2022-11-15T08:26:07.800Z,2.313
2022-11-15T08:27:07.902Z,2.393
2022-11-15T08:28:07.856Z,2.397
2022-11-15T08:29:07.888Z,2.434
2022-11-15T08:30:07.920Z,2.42
2022-11-15T08:31:07.954Z,2.429
2022-11-15T08:32:07.982Z,2.491
2022-11-15T08:33:08.017Z,2.552
2022-11-15T08:34:08.049Z,2.575
2022-11-15T08:35:08.086Z,2.561
2022-11-15T08:36:08.126Z,2.56
2022-11-15T08:37:08.155Z,2.619
2022-11-15T08:38:08.184Z,2.585
2022-11-15T08:39:08.220Z,2.557
2022-11-15T08:40:08.248Z,2.528
2022-11-15T08:41:08.282Z,2.608
2022-11-15T08:42:08.308Z,2.612
2022-11-15T08:43:08.333Z,2.583
2022-11-15T08:44:08.369Z,2.568
2022-11-15T08:45:08.399Z,2.64
2022-11-15T08:46:08.439Z,2.583
2022-11-15T08:47:08.470Z,2.541
2022-11-15T08:48:08.504Z,2.623
2022-11-15T08:49:08.533Z,2.658
2022-11-15T08:50:08.572Z,2.648
2022-11-15T08:51:08.602Z,2.685
2022-11-15T08:52:08.636Z,2.699
2022-11-15T08:53:08.664Z,2.753
2022-11-15T08:54:08.692Z,2.739
2022-11-15T08:55:08.729Z,2.746
2022-11-15T08:56:08.756Z,2.752
2022-11-15T08:57:08.793Z,2.777
2022-11-15T08:58:08.823Z,2.759
2022-11-15T08:59:08.849Z,2.812
2022-11-15T09:00:08.880Z,2.812
2022-11-15T09:01:08.941Z,2.812
2022-11-15T09:02:09.005Z,2.85
2022-11-15T09:03:08.979Z,2.942
2022-11-15T09:04:09.023Z,2.892
2022-11-15T09:05:09.044Z,2.877
2022-11-15T09:06:09.076Z,2.93
2022-11-15T09:07:09.148Z,2.93
2022-11-15T09:08:25.608Z,2.854
2022-11-15T09:09:09.172Z,2.893
2022-11-15T09:10:09.204Z,2.968
2022-11-15T09:11:09.244Z,2.997
2022-11-15T09:12:09.270Z,3.077
2022-11-15T09:13:09.290Z,3.112
2022-11-15T09:14:09.326Z,3.235
2022-11-15T09:15:09.352Z,3.265
2022-11-15T09:16:09.384Z,3.271
2022-11-15T09:17:09.414Z,3.197
2022-11-15T09:18:09.444Z,3.168
2022-11-15T09:19:11.892Z,3.217
2022-11-15T09:20:09.497Z,3.267
2022-11-15T09:21:09.537Z,3.273
2022-11-15T09:22:09.572Z,3.27
2022-11-15T09:23:09.594Z,3.323
2022-11-15T09:24:09.624Z,3.341
2022-11-15T09:25:11.098Z,3.317
2022-11-15T09:26:09.683Z,3.35
2022-11-15T09:27:09.715Z,3.385
2022-11-15T09:28:09.738Z,3.44
2022-11-15T09:29:09.762Z,3.52
2022-11-15T09:30:09.982Z,3.588
2022-11-15T09:31:09.822Z,3.544
2022-11-15T09:32:09.851Z,3.552
2022-11-15T09:33:09.883Z,3.608
2022-11-15T09:34:09.921Z,3.628
2022-11-15T09:35:09.947Z,3.645
2022-11-15T09:36:09.985Z,3.716
2022-11-15T09:37:10.016Z,3.733
2022-11-15T09:38:10.051Z,3.754
2022-11-15T09:39:10.082Z,3.828
2022-11-15T09:40:10.117Z,3.883
2022-11-15T09:41:10.148Z,3.981
2022-11-15T09:42:10.191Z,4.043
2022-11-15T09:43:10.206Z,4.075
2022-11-15T09:44:10.246Z,4.121
2022-11-15T09:45:10.273Z,4.177
2022-11-15T09:46:10.309Z,4.189
2022-11-15T09:47:10.334Z,4.159
2022-11-15T09:48:10.368Z,4.153
2022-11-15T09:49:10.401Z,4.241
2022-11-15T09:50:10.450Z,4.314
2022-11-15T09:51:10.471Z,4.357
2022-11-15T09:52:10.502Z,4.476
2022-11-15T09:53:10.526Z,4.512
2022-11-15T09:54:51.508Z,4.506
2022-11-15T09:55:10.593Z,4.521
2022-11-15T09:56:10.623Z,4.634
2022-11-15T09:57:16.040Z,4.631
2022-11-15T09:58:10.681Z,4.704
2022-11-15T09:59:10.713Z,4.817
2022-11-15T10:00:44.097Z,4.983
2022-11-15T10:01:10.807Z,5.059
2022-11-15T10:02:10.795Z,5.068
2022-11-15T10:03:10.829Z,5.082
2022-11-15T10:04:12.046Z,5.13
2022-11-15T10:05:10.891Z,5.116
2022-11-15T10:06:10.929Z,5.15
2022-11-15T10:07:10.999Z,5.285
2022-11-15T10:08:10.990Z,5.312
2022-11-15T10:09:11.023Z,5.286
2022-11-15T10:10:11.055Z,5.236
2022-11-15T10:11:36.789Z,5.282
2022-11-15T10:12:11.115Z,5.293
2022-11-15T10:13:11.152Z,5.283
2022-11-15T10:14:11.186Z,5.321
2022-11-15T10:15:11.218Z,5.432
2022-11-15T10:16:11.249Z,5.495
2022-11-15T10:17:11.274Z,5.617
2022-11-15T10:18:11.307Z,5.701
2022-11-15T10:19:11.337Z,5.737
2022-11-15T10:20:11.366Z,5.81
2022-11-15T10:21:11.398Z,5.86
2022-11-15T10:22:11.429Z,5.951
2022-11-15T10:23:11.463Z,5.936
2022-11-15T10:24:11.504Z,5.828
2022-11-15T10:25:11.528Z,5.854
2022-11-15T10:26:11.559Z,5.811
2022-11-15T10:27:11.589Z,5.978
2022-11-15T10:28:11.621Z,5.978
2022-11-15T10:29:11.649Z,5.867
2022-11-15T10:30:11.678Z,5.879
2022-11-15T10:31:14.362Z,5.892
2022-11-15T10:32:11.746Z,5.945
2022-11-15T10:33:11.775Z,6.037
2022-11-15T10:34:11.809Z,5.994
2022-11-15T10:35:11.835Z,6.044
2022-11-15T10:36:11.864Z,6.051
2022-11-15T10:37:11.902Z,5.972
2022-11-15T10:38:11.941Z,6.039
2022-11-15T10:39:11.994Z,6.089
2022-11-15T10:40:12.014Z,6.184
2022-11-15T10:41:12.049Z,6.26
2022-11-15T10:42:17.598Z,6.254
2022-11-15T10:43:12.111Z,6.222
2022-11-15T10:44:12.144Z,6.219
2022-11-15T10:45:12.166Z,6.2
2022-11-15T10:46:39.364Z,6.172
2022-11-15T10:47:12.232Z,6.216
2022-11-15T10:48:12.261Z,6.232
2022-11-15T10:49:12.295Z,6.33
2022-11-15T10:50:12.335Z,6.45
2022-11-15T10:51:12.365Z,6.466
2022-11-15T10:52:12.390Z,6.387
2022-11-15T10:53:12.418Z,6.292
2022-11-15T10:54:15.900Z,6.308
2022-11-15T10:55:12.484Z,6.25
2022-11-15T10:56:12.514Z,6.278
2022-11-15T10:57:12.540Z,6.278
2022-11-15T10:58:12.591Z,6.326
2022-11-15T10:59:12.602Z,6.377
2022-11-15T11:00:12.634Z,6.371
2022-11-15T11:01:12.844Z,6.409
2022-11-15T11:02:12.706Z,6.428
2022-11-15T11:03:12.738Z,6.317
2022-11-15T11:04:12.769Z,6.205
2022-11-15T11:05:12.818Z,6.173
2022-11-15T11:06:12.857Z,6.224
2022-11-15T11:07:12.939Z,6.256
2022-11-15T11:08:12.909Z,6.329
2022-11-15T11:09:12.944Z,6.355
2022-11-15T11:10:36.238Z,6.364
2022-11-15T11:11:13.013Z,6.38
2022-11-15T11:12:13.048Z,6.383
2022-11-15T11:13:13.235Z,6.431
2022-11-15T11:14:13.111Z,6.367
2022-11-15T11:15:13.144Z,6.357
2022-11-15T11:16:13.177Z,6.462
2022-11-15T11:17:13.209Z,6.526
2022-11-15T11:18:13.236Z,6.481
2022-11-15T11:19:13.270Z,6.462
2022-11-15T11:20:13.304Z,6.478
2022-11-15T11:21:13.339Z,6.522
2022-11-15T11:22:13.367Z,6.547
2022-11-15T11:23:13.401Z,6.544
2022-11-15T11:24:13.431Z,6.585
2022-11-15T11:25:13.458Z,6.556
2022-11-15T11:26:13.492Z,6.523
2022-11-15T11:27:13.524Z,6.523
2022-11-15T11:28:13.557Z,6.575
2022-11-15T11:29:13.593Z,6.477
2022-11-15T11:30:13.627Z,6.461
2022-11-15T11:31:13.655Z,6.396
2022-11-15T11:32:13.686Z,6.54
2022-11-15T11:33:13.723Z,6.556
2022-11-15T11:34:13.751Z,6.594
2022-11-15T11:35:13.795Z,6.548
2022-11-15T11:36:13.814Z,6.523
2022-11-15T11:37:13.843Z,6.539
2022-11-15T11:38:16.321Z,6.574
2022-11-15T11:39:13.906Z,6.717
2022-11-15T11:40:13.945Z,6.74
2022-11-15T11:41:13.976Z,6.708
2022-11-15T11:42:14.009Z,6.694
2022-11-15T11:43:14.040Z,6.61
2022-11-15T11:44:14.071Z,6.637
2022-11-15T11:45:14.134Z,6.593
2022-11-15T11:46:14.145Z,6.514
2022-11-15T11:47:14.174Z,6.499
2022-11-15T11:48:14.221Z,6.483
2022-11-15T11:49:14.266Z,6.499
2022-11-15T11:50:14.342Z,6.532
2022-11-15T11:51:14.318Z,6.466
2022-11-15T11:52:14.350Z,6.4
2022-11-15T11:53:14.397Z,6.542
2022-11-15T11:54:14.422Z,6.558
2022-11-15T11:55:14.460Z,6.658
2022-11-15T11:56:14.504Z,6.674
2022-11-15T11:57:14.531Z,6.74
2022-11-15T11:58:14.573Z,6.817
2022-11-15T11:59:14.609Z,6.864
2022-11-15T12:00:14.649Z,6.829
2022-11-15T12:01:14.671Z,6.902
2022-11-15T12:02:14.849Z,6.919
2022-11-15T12:03:14.784Z,6.849
2022-11-15T12:04:14.762Z,6.75
2022-11-15T12:05:14.798Z,6.814
2022-11-15T12:06:14.824Z,6.83
2022-11-15T12:07:14.909Z,7.003
2022-11-15T12:08:14.893Z,6.948
2022-11-15T12:09:14.929Z,6.948
2022-11-15T12:10:14.973Z,7.133
2022-11-15T12:11:15.001Z,7.016
2022-11-15T12:12:15.038Z,7.016
2022-11-15T12:13:15.069Z,7.146
2022-11-15T12:14:15.097Z,7.232
2022-11-15T12:15:15.127Z,7.279
2022-11-15T12:16:15.160Z,7.237
2022-11-15T12:17:15.187Z,7.153
2022-11-15T12:18:15.218Z,7.184
2022-11-15T12:19:15.248Z,7.266
2022-11-15T12:20:15.287Z,7.36
2022-11-15T12:21:15.315Z,7.31
2022-11-15T12:22:15.354Z,7.398
2022-11-15T12:23:15.376Z,7.347
2022-11-15T12:24:15.402Z,7.336
2022-11-15T12:25:15.437Z,7.349
2022-11-15T12:26:15.479Z,7.268
2022-11-15T12:27:15.512Z,7.34
2022-11-15T12:28:15.544Z,7.442
2022-11-15T12:29:15.572Z,7.461
2022-11-15T12:30:15.600Z,7.489
2022-11-15T12:31:15.630Z,7.606
2022-11-15T12:32:15.658Z,7.685
2022-11-15T12:33:15.688Z,7.757
2022-11-15T12:34:15.726Z,7.789
2022-11-15T12:35:15.761Z,7.86
2022-11-15T12:36:15.785Z,7.881
2022-11-15T12:37:15.819Z,7.849
2022-11-15T12:38:15.849Z,7.778
2022-11-15T12:39:15.882Z,7.819
2022-11-15T12:40:15.907Z,7.806
2022-11-15T12:41:15.941Z,7.795
2022-11-15T12:42:15.976Z,7.825
2022-11-15T12:43:16.015Z,7.827
2022-11-15T12:44:16.037Z,7.844
2022-11-15T12:45:16.069Z,7.896
2022-11-15T12:46:16.107Z,7.91
2022-11-15T12:47:19.446Z,7.948
2022-11-15T12:48:16.154Z,8.001
2022-11-15T12:49:16.188Z,8.009
2022-11-15T12:50:16.219Z,8.093